createdAt,value
2018-06-11T00:01:20.633Z,25.80
2018-06-11T00:03:48.739Z,25.70
2018-06-11T00:06:16.859Z,25.80
2018-06-11T00:08:44.936Z,25.70
2018-06-11T00:11:13.017Z,25.80
2018-06-11T00:13:41.102Z,25.70
2018-06-11T00:16:09.285Z,25.80
2018-06-11T00:18:37.371Z,25.70
2018-06-11T00:21:05.475Z,25.70
2018-06-11T00:23:33.673Z,25.70
2018-06-11T00:26:01.810Z,25.70
2018-06-11T00:28:30.052Z,25.70
2018-06-11T00:30:58.192Z,25.70
2018-06-11T00:33:26.369Z,25.70
2018-06-11T00:35:54.538Z,25.70
2018-06-11T00:38:22.668Z,25.70
2018-06-11T00:40:50.782Z,25.70
2018-06-11T00:43:18.857Z,25.70
2018-06-11T00:45:47.029Z,25.70
2018-06-11T00:48:15.092Z,25.70
2018-06-11T00:53:11.132Z,25.70
2018-06-11T00:55:50.655Z,25.70
2018-06-11T00:58:18.737Z,25.70
2018-06-11T01:00:46.931Z,25.70
2018-06-11T01:03:15.053Z,25.70
2018-06-11T01:05:43.192Z,25.70
2018-06-11T01:08:11.263Z,25.70
2018-06-11T01:10:39.373Z,25.70
2018-06-11T01:13:07.460Z,25.60
2018-06-11T01:15:35.552Z,25.60
2018-06-11T01:18:03.713Z,25.60
2018-06-11T01:20:31.857Z,25.60
2018-06-11T01:22:59.993Z,25.60
2018-06-11T01:25:28.093Z,25.60
2018-06-11T01:27:56.221Z,25.60
2018-06-11T01:30:24.412Z,25.60
2018-06-11T01:35:20.455Z,25.60
2018-06-11T01:40:16.415Z,25.60
2018-06-11T01:42:44.488Z,25.60
2018-06-11T01:45:12.566Z,25.60
2018-06-11T01:47:40.757Z,25.60
2018-06-11T01:50:08.848Z,25.60
2018-06-11T01:52:36.960Z,25.60
2018-06-11T01:55:05.269Z,25.50
2018-06-11T01:57:33.445Z,25.50
2018-06-11T02:00:01.593Z,25.50
2018-06-11T02:02:29.714Z,25.60
2018-06-11T02:04:57.907Z,25.60
2018-06-11T02:07:26.101Z,25.60
2018-06-11T02:09:54.342Z,25.60
2018-06-11T02:12:22.473Z,25.60
2018-06-11T02:14:50.962Z,25.60
2018-06-11T02:17:19.097Z,25.60
2018-06-11T02:19:47.153Z,25.50
2018-06-11T02:22:15.277Z,25.60
2018-06-11T02:27:11.380Z,25.50
2018-06-11T02:29:39.529Z,25.50
2018-06-11T02:32:07.626Z,25.60
2018-06-11T02:34:35.715Z,25.50
2018-06-11T02:37:03.839Z,25.50
2018-06-11T02:39:32.068Z,25.50
2018-06-11T02:42:00.194Z,25.50
2018-06-11T02:44:28.364Z,25.50
2018-06-11T02:46:56.508Z,25.50
2018-06-11T02:49:24.733Z,25.50
2018-06-11T02:51:52.844Z,25.50
2018-06-11T02:54:21.033Z,25.50
2018-06-11T02:56:49.116Z,25.50
2018-06-11T02:59:17.198Z,25.50
2018-06-11T03:01:45.270Z,25.50
2018-06-11T03:09:09.056Z,25.50
2018-06-11T03:11:37.136Z,25.50
2018-06-11T03:14:05.291Z,25.50
2018-06-11T03:16:33.404Z,25.50
2018-06-11T03:19:01.542Z,25.50
2018-06-11T03:23:57.649Z,25.40
2018-06-11T03:26:25.785Z,25.40
2018-06-11T03:31:21.969Z,25.40
2018-06-11T03:36:18.198Z,25.30
2018-06-11T03:38:46.441Z,25.40
2018-06-11T03:41:14.561Z,25.40
2018-06-11T03:43:42.747Z,25.40
2018-06-11T03:46:10.872Z,25.40
2018-06-11T03:48:39.002Z,25.40
2018-06-11T03:51:07.065Z,25.40
2018-06-11T03:53:35.224Z,25.40
2018-06-11T03:56:03.314Z,25.30
2018-06-11T04:00:59.349Z,25.30
2018-06-11T04:03:27.501Z,25.30
2018-06-11T04:05:55.651Z,25.30
2018-06-11T04:10:52.026Z,25.30
2018-06-11T04:13:20.095Z,25.30
2018-06-11T04:15:48.172Z,25.30
2018-06-11T04:18:16.252Z,25.30
2018-06-11T04:20:44.323Z,25.30
2018-06-11T04:23:12.478Z,25.30
2018-06-11T04:25:40.557Z,25.30
2018-06-11T04:28:08.641Z,25.30
2018-06-11T04:30:36.886Z,25.30
2018-06-11T04:33:05.185Z,25.30
2018-06-11T04:35:33.303Z,25.30
2018-06-11T04:38:01.552Z,25.30
2018-06-11T04:40:29.693Z,25.30
2018-06-11T04:42:57.902Z,25.30
2018-06-11T04:45:26.073Z,25.30
2018-06-11T04:47:54.244Z,25.30
2018-06-11T04:50:22.430Z,25.30
2018-06-11T04:55:18.526Z,25.30
2018-06-11T04:57:46.616Z,25.30
2018-06-11T05:00:14.701Z,25.30
2018-06-11T05:02:42.820Z,25.30
2018-06-11T05:05:10.934Z,25.30
2018-06-11T05:07:39.021Z,25.30
2018-06-11T05:10:07.289Z,25.30
2018-06-11T05:12:35.448Z,25.30
2018-06-11T05:15:03.608Z,25.30
2018-06-11T05:17:31.784Z,25.30
2018-06-11T05:19:59.961Z,25.30
2018-06-11T05:22:28.262Z,25.30
2018-06-11T05:24:56.408Z,25.30
2018-06-11T05:27:24.596Z,25.30
2018-06-11T05:29:52.832Z,25.30
2018-06-11T05:32:21.304Z,25.40
2018-06-11T05:34:49.406Z,25.30
2018-06-11T05:37:17.513Z,25.30
2018-06-11T05:39:45.669Z,25.30
2018-06-11T05:42:13.781Z,25.30
2018-06-11T05:44:41.874Z,25.30
2018-06-11T05:47:09.979Z,25.30
2018-06-11T05:49:38.059Z,25.30
2018-06-11T05:52:06.361Z,25.30
2018-06-11T05:54:34.597Z,25.30
2018-06-11T05:57:02.732Z,25.30
2018-06-11T05:59:30.994Z,25.30
2018-06-11T06:01:59.152Z,25.30
2018-06-11T06:04:27.356Z,25.30
2018-06-11T06:06:55.612Z,25.30
2018-06-11T06:09:23.745Z,25.30
2018-06-11T06:11:51.985Z,25.30
2018-06-11T06:14:20.280Z,25.30
2018-06-11T06:16:48.432Z,25.30
2018-06-11T06:21:44.486Z,25.40
2018-06-11T06:24:12.572Z,25.40
2018-06-11T06:26:40.765Z,25.40
2018-06-11T06:29:08.856Z,25.40
2018-06-11T06:31:37.183Z,25.40
2018-06-11T06:34:05.355Z,25.30
2018-06-11T06:36:33.564Z,25.40
2018-06-11T06:39:01.652Z,25.30
2018-06-11T06:41:29.787Z,25.30
2018-06-11T06:43:58.237Z,25.40
2018-06-11T06:46:26.376Z,25.40
2018-06-11T06:51:22.669Z,25.30
2018-06-11T06:53:50.732Z,25.40
2018-06-11T06:56:18.826Z,25.40
2018-06-11T06:58:47.025Z,25.40
2018-06-11T07:03:43.085Z,25.40
2018-06-11T07:06:11.236Z,25.40
2018-06-11T07:08:39.308Z,25.40
2018-06-11T07:11:07.472Z,25.40
2018-06-11T07:13:35.552Z,25.40
2018-06-11T07:16:03.750Z,25.40
2018-06-11T07:18:31.828Z,25.40
2018-06-11T07:20:59.987Z,25.40
2018-06-11T07:23:28.165Z,25.40
2018-06-11T07:26:03.212Z,25.30
2018-06-11T07:28:31.362Z,25.40
2018-06-11T07:30:59.468Z,25.40
2018-06-11T07:33:27.721Z,25.40
2018-06-11T07:35:55.950Z,25.40
2018-06-11T07:40:52.982Z,25.40
2018-06-11T07:43:21.124Z,25.40
2018-06-11T07:45:49.248Z,25.40
2018-06-11T07:48:17.361Z,25.40
2018-06-11T07:50:45.458Z,25.50
2018-06-11T07:53:13.541Z,25.50
2018-06-11T07:55:41.641Z,25.50
2018-06-11T07:58:09.756Z,25.50
2018-06-11T08:00:37.874Z,25.50
2018-06-11T08:03:05.980Z,25.40
2018-06-11T08:05:34.068Z,25.50
2018-06-11T08:08:02.257Z,25.40
2018-06-11T08:10:30.469Z,25.40
2018-06-11T08:12:58.689Z,25.50
2018-06-11T08:15:26.840Z,25.40
2018-06-11T08:20:22.961Z,25.50
2018-06-11T08:22:51.061Z,25.50
2018-06-11T08:25:19.207Z,25.50
2018-06-11T08:27:47.316Z,25.50
2018-06-11T08:30:15.516Z,25.50
2018-06-11T08:32:43.645Z,25.50
2018-06-11T08:37:39.679Z,25.50
2018-06-11T08:40:07.756Z,25.50
2018-06-11T08:42:35.868Z,25.50
2018-06-11T08:45:04.018Z,25.50
2018-06-11T08:47:32.842Z,25.50
2018-06-11T08:50:00.947Z,25.50
2018-06-11T08:52:29.184Z,25.60
2018-06-11T08:54:57.428Z,25.50
2018-06-11T08:57:25.603Z,25.50
2018-06-11T08:59:53.929Z,25.50
2018-06-11T09:02:21.947Z,25.50
2018-06-11T09:04:50.105Z,25.50
2018-06-11T09:07:18.222Z,25.50
2018-06-11T09:09:46.348Z,25.50
2018-06-11T09:12:14.513Z,25.50
2018-06-11T09:14:42.739Z,25.50
2018-06-11T09:17:10.805Z,25.50
2018-06-11T09:19:38.936Z,25.50
2018-06-11T09:22:07.693Z,25.50
2018-06-11T09:24:35.764Z,25.50
2018-06-11T09:27:03.845Z,25.60
2018-06-11T09:29:31.940Z,25.50
2018-06-11T09:32:00.129Z,25.60
2018-06-11T09:34:28.237Z,25.60
2018-06-11T09:36:56.404Z,25.60
2018-06-11T09:39:24.500Z,25.60
2018-06-11T09:41:52.741Z,25.60
2018-06-11T09:44:21.640Z,25.70
2018-06-11T09:46:49.741Z,25.60
2018-06-11T09:49:17.823Z,25.60
2018-06-11T09:51:45.933Z,25.60
2018-06-11T09:54:14.012Z,25.60
2018-06-11T09:56:42.069Z,25.70
2018-06-11T09:59:10.147Z,25.70
2018-06-11T10:01:38.258Z,25.70
2018-06-11T10:06:34.540Z,25.70
2018-06-11T10:11:30.545Z,25.70
2018-06-11T10:13:58.666Z,25.70
2018-06-11T10:16:26.823Z,25.70
2018-06-11T10:18:54.915Z,25.70
2018-06-11T10:21:23.136Z,25.70
2018-06-11T10:23:51.252Z,25.70
2018-06-11T10:26:19.399Z,25.70
2018-06-11T10:28:47.492Z,25.70
2018-06-11T10:31:15.573Z,25.70
2018-06-11T10:33:43.658Z,25.70
2018-06-11T10:36:11.721Z,25.70
2018-06-11T10:38:39.993Z,25.70
2018-06-11T10:41:08.153Z,25.70
2018-06-11T10:43:36.244Z,25.70
2018-06-11T10:46:04.391Z,25.70
2018-06-11T10:51:00.501Z,25.80
2018-06-11T10:53:28.743Z,25.80
2018-06-11T10:55:56.928Z,25.80
2018-06-11T10:58:26.048Z,25.80
2018-06-11T11:00:54.259Z,25.80
2018-06-11T11:03:22.560Z,25.80
2018-06-11T11:05:50.640Z,25.80
2018-06-11T11:08:18.752Z,25.80
2018-06-11T11:10:46.866Z,25.80
2018-06-11T11:13:14.979Z,25.80
2018-06-11T11:15:43.072Z,25.80
2018-06-11T11:18:11.179Z,25.80
2018-06-11T11:20:39.265Z,25.80
2018-06-11T11:23:07.403Z,25.80
2018-06-11T11:25:35.521Z,25.80
2018-06-11T11:28:03.628Z,25.80
2018-06-11T11:30:31.793Z,25.80
2018-06-11T11:32:59.951Z,25.80
2018-06-11T11:35:28.165Z,25.80
2018-06-11T11:37:56.356Z,25.80
2018-06-11T11:40:24.500Z,25.80
2018-06-11T11:42:53.539Z,25.90
2018-06-11T11:45:21.697Z,25.90
2018-06-11T11:47:49.824Z,25.90
2018-06-11T11:50:17.949Z,25.90
2018-06-11T11:52:46.033Z,25.80
2018-06-11T11:55:14.154Z,25.80
2018-06-11T11:57:42.221Z,25.90
2018-06-11T12:00:10.293Z,25.80
2018-06-11T12:02:38.364Z,25.90
2018-06-11T12:05:06.468Z,25.90
2018-06-11T12:07:34.581Z,25.80
2018-06-11T12:10:02.708Z,25.90
2018-06-11T12:12:30.909Z,25.90
2018-06-11T12:14:59.058Z,25.90
2018-06-11T12:17:30.882Z,25.90
2018-06-11T12:20:02.119Z,25.90
2018-06-11T12:22:33.031Z,25.90
2018-06-11T12:25:01.716Z,25.90
2018-06-11T12:27:30.035Z,25.90
2018-06-11T12:29:58.406Z,25.90
2018-06-11T12:32:26.630Z,25.90
2018-06-11T12:34:55.012Z,25.90
2018-06-11T12:37:23.264Z,26.00
2018-06-11T12:39:51.362Z,26.00
2018-06-11T12:42:19.463Z,26.00
2018-06-11T12:44:47.561Z,26.00
2018-06-11T12:47:15.735Z,26.00
2018-06-11T12:49:43.879Z,26.00
2018-06-11T12:52:12.021Z,26.00
2018-06-11T12:54:40.169Z,26.00
2018-06-11T12:57:08.328Z,26.00
2018-06-11T12:59:36.396Z,26.00
2018-06-11T13:02:04.544Z,26.00
2018-06-11T13:04:32.660Z,26.10
2018-06-11T13:07:00.841Z,26.10
2018-06-11T13:09:29.077Z,26.10
2018-06-11T13:11:57.327Z,26.10
2018-06-11T13:14:25.446Z,26.10
2018-06-11T13:16:53.635Z,26.00
2018-06-11T13:19:21.757Z,26.00
2018-06-11T13:21:49.870Z,26.00
2018-06-11T13:24:18.017Z,26.00
2018-06-11T13:26:46.177Z,26.00
2018-06-11T13:29:14.276Z,26.00
2018-06-11T13:31:42.469Z,26.00
2018-06-11T13:34:10.594Z,26.00
2018-06-11T13:36:38.753Z,26.10
2018-06-11T13:39:08.275Z,26.10
2018-06-11T13:41:36.549Z,26.00
2018-06-11T13:44:06.595Z,26.00
2018-06-11T13:46:34.747Z,26.00
2018-06-11T13:49:03.064Z,26.00
2018-06-11T13:51:31.251Z,26.00
2018-06-11T13:53:59.400Z,26.00
2018-06-11T13:56:27.678Z,25.90
2018-06-11T13:58:55.991Z,26.00
2018-06-11T14:01:24.255Z,26.00
2018-06-11T14:03:52.903Z,26.00
2018-06-11T14:06:22.448Z,26.00
2018-06-11T14:08:50.541Z,26.00
2018-06-11T14:11:18.632Z,25.90
2018-06-11T14:13:46.753Z,25.90
2018-06-11T14:16:14.879Z,25.90
2018-06-11T14:18:43.106Z,25.90
2018-06-11T14:21:11.299Z,25.90
2018-06-11T14:23:39.420Z,25.90
2018-06-11T14:26:07.591Z,25.90
2018-06-11T14:28:35.744Z,25.90
2018-06-11T14:31:04.074Z,25.90
2018-06-11T14:33:32.326Z,25.90
2018-06-11T14:36:00.645Z,26.00
2018-06-11T14:38:28.858Z,25.90
2018-06-11T14:40:57.263Z,25.90
2018-06-11T14:43:25.476Z,25.90
2018-06-11T14:45:53.711Z,25.90
2018-06-11T14:48:21.845Z,25.90
2018-06-11T14:50:50.009Z,25.90
2018-06-11T14:53:18.193Z,25.90
2018-06-11T14:55:46.313Z,25.90
2018-06-11T14:58:14.464Z,25.90
2018-06-11T15:00:42.886Z,25.80
2018-06-11T15:03:11.023Z,25.80
2018-06-11T15:05:39.193Z,25.90
2018-06-11T15:08:07.443Z,25.90
2018-06-11T15:10:35.592Z,25.80
2018-06-11T15:13:03.687Z,25.80
2018-06-11T15:15:31.969Z,25.80
2018-06-11T15:18:00.201Z,25.80
2018-06-11T15:20:28.337Z,25.80
2018-06-11T15:22:56.465Z,25.80
2018-06-11T15:25:24.733Z,25.80
2018-06-11T15:27:52.997Z,25.80
2018-06-11T15:30:21.132Z,25.80
2018-06-11T15:35:17.118Z,25.80
2018-06-11T15:37:45.224Z,25.80
2018-06-11T15:40:13.300Z,25.80
2018-06-11T15:42:41.389Z,25.80
2018-06-11T15:45:09.501Z,25.80
2018-06-11T15:47:37.612Z,25.80
2018-06-11T15:50:05.771Z,25.70
2018-06-11T15:52:33.937Z,25.80
2018-06-11T15:55:02.168Z,25.70
2018-06-11T15:57:30.399Z,25.80
2018-06-11T15:59:58.637Z,25.80
2018-06-11T16:02:26.943Z,25.70
2018-06-11T16:04:55.142Z,25.80
2018-06-11T16:07:23.296Z,25.80
2018-06-11T16:09:51.406Z,25.80
2018-06-11T16:12:19.737Z,25.70
2018-06-11T16:14:47.809Z,25.70
2018-06-11T16:17:15.911Z,25.80
2018-06-11T16:19:44.036Z,25.70
2018-06-11T16:22:12.120Z,25.70
2018-06-11T16:24:40.857Z,25.80
2018-06-11T16:27:08.957Z,25.70
2018-06-11T16:29:37.058Z,25.70
2018-06-11T16:32:05.172Z,25.70
2018-06-11T16:34:33.385Z,25.80
2018-06-11T16:37:01.557Z,25.70
2018-06-11T16:39:29.651Z,25.70
2018-06-11T16:41:57.829Z,25.70
2018-06-11T16:44:26.213Z,25.70
2018-06-11T16:46:54.354Z,25.70
2018-06-11T16:49:23.176Z,25.70
2018-06-11T16:51:51.300Z,25.70
2018-06-11T16:54:20.028Z,25.70
2018-06-11T16:56:48.104Z,25.70
2018-06-11T16:59:16.257Z,25.70
2018-06-11T17:01:44.325Z,25.70
2018-06-11T17:04:12.616Z,25.70
2018-06-11T17:06:40.698Z,25.70
2018-06-11T17:09:08.952Z,25.70
2018-06-11T17:11:38.036Z,25.70
2018-06-11T17:14:06.128Z,25.70
2018-06-11T17:16:34.221Z,25.70
2018-06-11T17:19:02.540Z,25.70
2018-06-11T17:21:30.717Z,25.70
2018-06-11T17:23:58.840Z,25.70
2018-06-11T17:26:27.168Z,25.70
2018-06-11T17:28:55.382Z,25.60
2018-06-11T17:31:23.613Z,25.60
2018-06-11T17:33:51.769Z,25.60
2018-06-11T17:36:19.883Z,25.60
2018-06-11T17:38:49.334Z,25.70
2018-06-11T17:41:17.748Z,25.60
2018-06-11T17:43:45.836Z,25.60
2018-06-11T17:46:13.906Z,25.60
2018-06-11T17:48:41.981Z,25.60
2018-06-11T17:51:10.213Z,25.60
2018-06-11T17:53:38.347Z,25.60
2018-06-11T17:56:06.517Z,25.60
2018-06-11T17:58:34.704Z,25.60
2018-06-11T18:01:02.756Z,25.60
2018-06-11T18:03:30.864Z,25.60
2018-06-11T18:08:26.965Z,25.60
2018-06-11T18:10:55.109Z,25.60
2018-06-11T18:13:23.338Z,25.60
2018-06-11T18:15:51.395Z,25.60
2018-06-11T18:18:19.596Z,25.60
2018-06-11T18:20:47.702Z,25.60
2018-06-11T18:23:15.785Z,25.60
2018-06-11T18:25:43.960Z,25.60
2018-06-11T18:28:12.459Z,25.50
2018-06-11T18:30:40.960Z,25.50
2018-06-11T18:33:09.082Z,25.50
2018-06-11T18:35:37.153Z,25.50
2018-06-11T18:38:05.240Z,25.50
2018-06-11T18:40:33.428Z,25.50
2018-06-11T18:43:01.855Z,25.50
2018-06-11T18:45:29.948Z,25.50
2018-06-11T18:47:58.052Z,25.50
2018-06-11T18:50:26.216Z,25.50
2018-06-11T18:52:54.337Z,25.50
2018-06-11T18:55:23.506Z,25.50
2018-06-11T18:57:51.597Z,25.50
2018-06-11T19:00:19.693Z,25.50
2018-06-11T19:02:47.841Z,25.50
2018-06-11T19:05:15.911Z,25.50
2018-06-11T19:07:43.980Z,25.40
2018-06-11T19:10:12.096Z,25.50
2018-06-11T19:12:40.344Z,25.40
2018-06-11T19:15:08.449Z,25.50
2018-06-11T19:17:36.541Z,25.40
2018-06-11T19:20:04.725Z,25.40
2018-06-11T19:22:32.906Z,25.40
2018-06-11T19:25:01.039Z,25.40
2018-06-11T19:27:29.256Z,25.40
2018-06-11T19:29:57.574Z,25.40
2018-06-11T19:32:25.749Z,25.40
2018-06-11T19:34:54.027Z,25.40
2018-06-11T19:37:22.295Z,25.40
2018-06-11T19:39:50.367Z,25.30
2018-06-11T19:42:18.477Z,25.30
2018-06-11T19:44:46.535Z,25.40
2018-06-11T19:47:14.612Z,25.40
2018-06-11T19:49:42.686Z,25.40
2018-06-11T19:52:10.751Z,25.30
2018-06-11T19:54:38.887Z,25.30
2018-06-11T19:57:07.189Z,25.30
2018-06-11T19:59:35.278Z,25.30
2018-06-11T20:02:03.408Z,25.30
2018-06-11T20:04:31.544Z,25.30
2018-06-11T20:06:59.639Z,25.30
2018-06-11T20:09:32.445Z,25.30
2018-06-11T20:12:00.553Z,25.30
2018-06-11T20:14:28.677Z,25.30
2018-06-11T20:16:56.840Z,25.20
2018-06-11T20:19:25.010Z,25.20
2018-06-11T20:24:21.180Z,25.20
2018-06-11T20:26:49.277Z,25.20
2018-06-11T20:29:17.375Z,25.20
2018-06-11T20:31:45.473Z,25.20
2018-06-11T20:34:13.557Z,25.20
2018-06-11T20:36:41.648Z,25.20
2018-06-11T20:39:09.730Z,25.20
2018-06-11T20:41:37.805Z,25.20
2018-06-11T20:44:05.983Z,25.20
2018-06-11T20:46:34.113Z,25.20
2018-06-11T20:51:30.138Z,25.10
2018-06-11T20:53:58.251Z,25.20
2018-06-11T20:56:26.400Z,25.10
2018-06-11T20:58:54.694Z,25.10
2018-06-11T21:01:22.778Z,25.10
2018-06-11T21:03:50.904Z,25.10
2018-06-11T21:06:18.980Z,25.10
2018-06-11T21:08:47.797Z,25.10
2018-06-11T21:11:15.860Z,25.10
2018-06-11T21:13:43.932Z,25.10
2018-06-11T21:16:12.190Z,25.10
2018-06-11T21:18:40.377Z,25.10
2018-06-11T21:21:08.518Z,25.10
2018-06-11T21:23:36.589Z,25.10
2018-06-11T21:26:04.855Z,25.20
2018-06-11T21:28:32.935Z,25.10
2018-06-11T21:31:01.061Z,25.10
2018-06-11T21:33:29.303Z,25.10
2018-06-11T21:35:57.487Z,25.10
2018-06-11T21:38:25.768Z,25.10
2018-06-11T21:40:54.372Z,25.10
2018-06-11T21:43:22.492Z,25.10
2018-06-11T21:45:50.596Z,25.10
2018-06-11T21:48:18.680Z,25.10
2018-06-11T21:50:46.802Z,25.10
2018-06-11T21:53:14.854Z,25.10
2018-06-11T21:55:42.963Z,25.10
2018-06-11T21:58:11.634Z,25.10
2018-06-11T22:00:39.740Z,25.10
2018-06-11T22:03:07.829Z,25.10
2018-06-11T22:05:35.885Z,25.10
2018-06-11T22:08:04.034Z,25.10
2018-06-11T22:10:32.119Z,25.10
2018-06-11T22:13:00.586Z,25.10
2018-06-11T22:15:28.705Z,25.10
2018-06-11T22:17:56.848Z,25.10
2018-06-11T22:20:25.036Z,25.10
2018-06-11T22:22:53.208Z,25.10
2018-06-11T22:25:21.341Z,25.10
2018-06-11T22:27:49.417Z,25.00
2018-06-11T22:30:17.516Z,25.00
2018-06-11T22:32:45.600Z,25.00
2018-06-11T22:35:13.677Z,25.00
2018-06-11T22:37:41.745Z,25.00
2018-06-11T22:40:09.828Z,25.00
2018-06-11T22:42:37.912Z,25.00
2018-06-11T22:45:06.162Z,25.00
2018-06-11T22:47:34.301Z,25.00
2018-06-11T22:50:02.388Z,25.00
2018-06-11T22:52:30.484Z,25.00
2018-06-11T22:54:58.604Z,25.00
2018-06-11T22:57:26.714Z,24.90
2018-06-11T22:59:54.797Z,25.00
2018-06-11T23:02:22.881Z,25.00
2018-06-11T23:04:50.936Z,25.00
2018-06-11T23:07:19.126Z,24.90
2018-06-11T23:12:15.132Z,25.00
2018-06-11T23:14:43.224Z,25.00
2018-06-11T23:17:11.489Z,25.00
2018-06-11T23:19:39.630Z,25.00
2018-06-11T23:22:07.736Z,24.90
2018-06-11T23:24:35.877Z,24.90
2018-06-11T23:27:03.969Z,24.90
2018-06-11T23:29:32.161Z,25.00
2018-06-11T23:32:00.233Z,24.90
2018-06-11T23:34:28.446Z,24.90
2018-06-11T23:36:56.557Z,25.00
2018-06-11T23:39:24.748Z,24.90
2018-06-11T23:41:52.925Z,24.90
2018-06-11T23:46:48.852Z,24.90
2018-06-11T23:49:16.936Z,24.90
2018-06-11T23:51:45.010Z,24.90
2018-06-11T23:54:13.084Z,24.90
2018-06-11T23:56:41.188Z,24.90
2018-06-11T23:59:09.407Z,24.90
